Weather at Boyne Mountain Airport

Public forecast

Using degrees Fahrenheit for public forecast. Weather courtesy of forecast.io.

Closest aviation weather report (METAR) to Boyne Mountain Airport

Closest report is Gaylord Regional Airport, 13.1 nm (24.2 km) SE. Retrieved 2021/08/01 00:53 UTC (12 minutes ago):

KGLR 010053Z AUTO 30004KT 5SM HZ CLR 19/14 A2991 RMK AO2 SLP127 T01940139

Closest aviation forecast (TAF) to Boyne Mountain Airport

Closest forecast is Pellston Regional Airport of Emmet County Airport, 24.9 nm (46.1 km) NNE. Retrieved 2021-08-01 00:22 UTC (43 minutes ago):

TAF KPLN 312320Z 0100/0124 32005KT P6SM VCSH SCT025 BKN050 FM011000 34007KT 6SM -SHRA BKN025 OVC050 FM011600 35010KT P6SM SCT050